Time;durP1;ratioP1;P1;durP2;ratioP2;P2;SDS_P1;SDS_P2;PMS_P1;PMS_P2;Temp;Humidity;BMP_temperature;BMP_pressure;BME280_temperature;BME280_humidity;BME280_pressure;Samples;Min_cycle;Max_cycle;Signal;HPM_P1;HPM_P2
2021/07/04 00:00:51;;;;;;;0.30;0.30;;;;;;;;;;5049522;28;20062;-78
2021/07/04 00:03:16;;;;;;;0.20;0.20;;;;;;;;;;5057733;28;20036;-78
2021/07/04 00:05:46;;;;;;;0.20;0.20;;;;;;;;;;5061920;28;20631;-78
2021/07/04 00:08:13;;;;;;;0.20;0.20;;;;;;;;;;5063542;28;20078;-77
2021/07/04 00:10:41;;;;;;;0.20;0.20;;;;;;;;;;5057731;28;20021;-78
2021/07/04 00:13:06;;;;;;;0.20;0.20;;;;;;;;;;5063733;28;20021;-76
2021/07/04 00:15:38;;;;;;;0.20;0.20;;;;;;;;;;5069483;28;20051;-77
2021/07/04 00:18:04;;;;;;;0.20;0.20;;;;;;;;;;5062282;28;20443;-77
2021/07/04 00:20:29;;;;;;;0.20;0.20;;;;;;;;;;5059855;28;20848;-78
2021/07/04 00:22:55;;;;;;;0.15;0.15;;;;;;;;;;5056673;28;20033;-78
2021/07/04 00:25:22;;;;;;;0.20;0.20;;;;;;;;;;5060991;28;20713;-77
2021/07/04 00:27:47;;;;;;;0.20;0.20;;;;;;;;;;5046265;28;20046;-78
2021/07/04 00:30:13;;;;;;;0.20;0.20;;;;;;;;;;5067550;28;20028;-78
2021/07/04 00:32:38;;;;;;;0.20;0.20;;;;;;;;;;5058836;28;20591;-79
2021/07/04 00:35:05;;;;;;;0.10;0.10;;;;;;;;;;5062165;28;20052;-76
2021/07/04 00:37:31;;;;;;;0.20;0.20;;;;;;;;;;5065941;28;20063;-78
2021/07/04 00:39:56;;;;;;;0.10;0.10;;;;;;;;;;5060726;28;20056;-77
2021/07/04 00:42:22;;;;;;;0.20;0.20;;;;;;;;;;5050672;28;20044;-78
2021/07/04 00:44:47;;;;;;;0.20;0.20;;;;;;;;;;5065732;28;20032;-78
2021/07/04 00:47:13;;;;;;;0.32;0.32;;;;;;;;;;5052130;28;20081;-78
2021/07/04 00:49:42;;;;;;;0.20;0.20;;;;;;;;;;5064721;28;20024;-78
2021/07/04 00:52:07;;;;;;;0.20;0.20;;;;;;;;;;5052135;28;20032;-77
2021/07/04 00:54:33;;;;;;;0.30;0.30;;;;;;;;;;5069498;28;20025;-78
2021/07/04 00:56:59;;;;;;;0.20;0.20;;;;;;;;;;5064528;28;20020;-78
2021/07/04 00:59:25;;;;;;;0.20;0.20;;;;;;;;;;5049515;28;20025;-79
2021/07/04 01:01:50;;;;;;;0.30;0.30;;;;;;;;;;5042847;28;20378;-79
2021/07/04 01:04:16;;;;;;;0.20;0.20;;;;;;;;;;5050704;28;20116;-79
2021/07/04 01:06:42;;;;;;;0.30;0.30;;;;;;;;;;5048163;28;20028;-78
2021/07/04 01:09:07;;;;;;;0.20;0.20;;;;;;;;;;5053310;28;20028;-77
2021/07/04 01:11:33;;;;;;;0.20;0.20;;;;;;;;;;5049605;28;20100;-77
2021/07/04 01:13:59;;;;;;;0.20;0.20;;;;;;;;;;5064327;28;20092;-78
2021/07/04 01:16:27;;;;;;;0.20;0.20;;;;;;;;;;5050633;28;20025;-78
2021/07/04 01:18:53;;;;;;;0.20;0.20;;;;;;;;;;5057550;28;20028;-78
2021/07/04 01:21:27;;;;;;;0.25;0.25;;;;;;;;;;5053695;28;20476;-78
2021/07/04 01:23:53;;;;;;;0.28;0.28;;;;;;;;;;5061429;28;20029;-78
2021/07/04 01:26:19;;;;;;;0.20;0.20;;;;;;;;;;5046567;28;20105;-79
2021/07/04 01:28:44;;;;;;;0.30;0.30;;;;;;;;;;5059811;28;20045;-77
2021/07/04 01:31:09;;;;;;;0.20;0.20;;;;;;;;;;5067180;28;20450;-78
2021/07/04 01:33:39;;;;;;;0.28;0.28;;;;;;;;;;5060452;28;20460;-78
2021/07/04 01:36:14;;;;;;;0.20;0.20;;;;;;;;;;5059384;28;21039;-79
2021/07/04 01:38:43;;;;;;;0.30;0.30;;;;;;;;;;5058109;28;20037;-78
2021/07/04 01:41:11;;;;;;;0.30;0.30;;;;;;;;;;5064622;28;20036;-77
2021/07/04 01:43:36;;;;;;;0.30;0.30;;;;;;;;;;5062661;28;20032;-78
2021/07/04 01:46:02;;;;;;;0.30;0.30;;;;;;;;;;5075574;28;20107;-78
2021/07/04 01:48:28;;;;;;;0.22;0.22;;;;;;;;;;5051310;28;20078;-78
2021/07/04 01:50:56;;;;;;;0.20;0.20;;;;;;;;;;5040782;28;20108;-78
2021/07/04 01:53:27;;;;;;;0.30;0.30;;;;;;;;;;5048256;28;20568;-77
2021/07/04 01:56:00;;;;;;;0.20;0.20;;;;;;;;;;5042645;28;20163;-77
2021/07/04 01:58:25;;;;;;;0.20;0.20;;;;;;;;;;5057898;28;20033;-78
2021/07/04 02:00:59;;;;;;;0.30;0.30;;;;;;;;;;5058865;28;20025;-77
2021/07/04 02:03:25;;;;;;;0.35;0.30;;;;;;;;;;5064607;28;20719;-78
2021/07/04 02:05:58;;;;;;;0.30;0.30;;;;;;;;;;5063813;28;20029;-78
2021/07/04 02:08:26;;;;;;;0.20;0.20;;;;;;;;;;5058580;28;20108;-77
2021/07/04 02:10:58;;;;;;;0.22;0.22;;;;;;;;;;5059827;28;20054;-77
2021/07/04 02:13:24;;;;;;;0.20;0.20;;;;;;;;;;5043487;28;20025;-78
2021/07/04 02:15:51;;;;;;;0.20;0.20;;;;;;;;;;5049910;28;20033;-77
2021/07/04 02:18:27;;;;;;;0.20;0.20;;;;;;;;;;5058919;28;20424;-78
2021/07/04 02:20:54;;;;;;;0.20;0.20;;;;;;;;;;5058897;28;20035;-78
2021/07/04 02:23:26;;;;;;;0.20;0.20;;;;;;;;;;5065876;28;20029;-78
2021/07/04 02:26:11;;;;;;;0.20;0.20;;;;;;;;;;5066288;28;20047;-77
2021/07/04 02:28:40;;;;;;;0.20;0.20;;;;;;;;;;5058055;28;20513;-78
2021/07/04 02:31:14;;;;;;;0.30;0.30;;;;;;;;;;5058560;28;20366;-79
2021/07/04 02:33:41;;;;;;;0.30;0.30;;;;;;;;;;5044078;28;20038;-78
2021/07/04 02:36:07;;;;;;;0.30;0.30;;;;;;;;;;5048411;28;20675;-77
2021/07/04 02:38:33;;;;;;;0.30;0.30;;;;;;;;;;5061573;28;20028;-78
2021/07/04 02:40:58;;;;;;;0.20;0.20;;;;;;;;;;5056729;28;20024;-78
2021/07/04 02:43:25;;;;;;;0.20;0.20;;;;;;;;;;5059978;28;20032;-78
2021/07/04 02:45:53;;;;;;;0.30;0.30;;;;;;;;;;5064143;28;20487;-78
2021/07/04 02:48:20;;;;;;;0.30;0.30;;;;;;;;;;5061194;28;20024;-78
2021/07/04 02:50:51;;;;;;;0.30;0.30;;;;;;;;;;5045298;28;20029;-78
2021/07/04 02:53:22;;;;;;;0.30;0.30;;;;;;;;;;5056556;28;20017;-78
2021/07/04 02:55:51;;;;;;;0.30;0.30;;;;;;;;;;5062562;28;20057;-78
2021/07/04 02:58:18;;;;;;;0.20;0.20;;;;;;;;;;5075293;28;20028;-78
2021/07/04 03:00:45;;;;;;;0.20;0.20;;;;;;;;;;5073680;28;20028;-76
2021/07/04 03:03:13;;;;;;;0.30;0.30;;;;;;;;;;5075894;28;20040;-76
2021/07/04 03:05:38;;;;;;;0.30;0.30;;;;;;;;;;5092160;28;20021;-76
2021/07/04 03:08:04;;;;;;;0.20;0.20;;;;;;;;;;5072367;28;20029;-76
2021/07/04 03:10:30;;;;;;;0.30;0.30;;;;;;;;;;5044136;28;20060;-77
2021/07/04 03:12:56;;;;;;;0.30;0.30;;;;;;;;;;5063492;28;20159;-79
2021/07/04 03:15:22;;;;;;;0.30;0.30;;;;;;;;;;5060009;28;20031;-78
2021/07/04 03:17:47;;;;;;;0.20;0.20;;;;;;;;;;5063566;28;20106;-77
2021/07/04 03:20:15;;;;;;;0.28;0.28;;;;;;;;;;5050407;28;20393;-77
2021/07/04 03:22:43;;;;;;;0.30;0.30;;;;;;;;;;5074621;28;20417;-78
2021/07/04 03:25:09;;;;;;;0.30;0.30;;;;;;;;;;5071381;28;20036;-78
2021/07/04 03:27:35;;;;;;;0.20;0.20;;;;;;;;;;5069297;28;20284;-77
2021/07/04 03:30:03;;;;;;;0.25;0.25;;;;;;;;;;5053181;28;20033;-78
2021/07/04 03:32:31;;;;;;;0.20;0.20;;;;;;;;;;5064949;28;20032;-77
2021/07/04 03:34:57;;;;;;;0.35;0.35;;;;;;;;;;5073266;28;20070;-78
2021/07/04 03:37:22;;;;;;;0.30;0.30;;;;;;;;;;5062927;28;20020;-77
2021/07/04 03:39:48;;;;;;;0.30;0.30;;;;;;;;;;5069352;28;20024;-78
2021/07/04 03:42:14;;;;;;;0.30;0.30;;;;;;;;;;5074085;28;20037;-77
2021/07/04 03:44:41;;;;;;;0.30;0.30;;;;;;;;;;5064612;28;20488;-77
2021/07/04 03:47:07;;;;;;;0.20;0.20;;;;;;;;;;5056133;28;20029;-76
2021/07/04 03:49:33;;;;;;;0.30;0.30;;;;;;;;;;5059010;28;20023;-78
2021/07/04 03:52:05;;;;;;;0.40;0.40;;;;;;;;;;5087394;28;20040;-79
2021/07/04 03:54:32;;;;;;;0.30;0.30;;;;;;;;;;5071750;28;20034;-78
2021/07/04 03:56:57;;;;;;;0.38;0.38;;;;;;;;;;5067198;28;20032;-77
2021/07/04 03:59:23;;;;;;;0.30;0.30;;;;;;;;;;5064590;28;20070;-77
2021/07/04 04:01:48;;;;;;;0.30;0.30;;;;;;;;;;5069680;28;20057;-78
2021/07/04 04:04:14;;;;;;;0.30;0.30;;;;;;;;;;5047885;28;20563;-79
2021/07/04 04:06:41;;;;;;;0.30;0.30;;;;;;;;;;5061864;28;20056;-78
2021/07/04 04:09:11;;;;;;;0.38;0.38;;;;;;;;;;5064562;28;20020;-78
2021/07/04 04:11:59;;;;;;;0.30;0.30;;;;;;;;;;5063742;28;20029;-79
2021/07/04 04:14:32;;;;;;;0.30;0.30;;;;;;;;;;5070811;28;20081;-77
2021/07/04 04:17:01;;;;;;;0.25;0.25;;;;;;;;;;5061802;28;20033;-78
2021/07/04 04:19:31;;;;;;;0.20;0.20;;;;;;;;;;5067027;28;20024;-78
2021/07/04 04:21:56;;;;;;;0.20;0.20;;;;;;;;;;5058437;28;20038;-78
2021/07/04 04:24:22;;;;;;;0.32;0.32;;;;;;;;;;5061120;28;20481;-78
2021/07/04 04:26:47;;;;;;;0.30;0.30;;;;;;;;;;5048112;28;20036;-79
2021/07/04 04:29:13;;;;;;;0.20;0.20;;;;;;;;;;5068776;28;20154;-78
2021/07/04 04:31:41;;;;;;;0.30;0.30;;;;;;;;;;5047536;28;20035;-78
2021/07/04 04:34:06;;;;;;;0.20;0.20;;;;;;;;;;5053624;28;20033;-77
2021/07/04 04:36:32;;;;;;;0.30;0.30;;;;;;;;;;5072502;28;20108;-77
2021/07/04 04:38:57;;;;;;;0.30;0.30;;;;;;;;;;5063599;28;20021;-78
2021/07/04 04:41:23;;;;;;;0.20;0.20;;;;;;;;;;5064545;28;20055;-78
2021/07/04 04:43:48;;;;;;;0.25;0.25;;;;;;;;;;5060828;28;20032;-78
2021/07/04 04:46:13;;;;;;;0.30;0.30;;;;;;;;;;5068332;28;20091;-78
2021/07/04 04:48:39;;;;;;;0.20;0.20;;;;;;;;;;5064729;28;20119;-78
2021/07/04 04:51:07;;;;;;;0.20;0.20;;;;;;;;;;5064505;28;20020;-77
2021/07/04 04:53:32;;;;;;;0.20;0.20;;;;;;;;;;5066070;28;20080;-78
2021/07/04 04:55:58;;;;;;;0.30;0.30;;;;;;;;;;5065683;28;20023;-79
2021/07/04 04:58:24;;;;;;;0.20;0.20;;;;;;;;;;5072044;28;20111;-77
2021/07/04 05:00:49;;;;;;;0.20;0.20;;;;;;;;;;5064584;28;20025;-77
2021/07/04 05:03:14;;;;;;;0.20;0.20;;;;;;;;;;5069163;28;20017;-78
2021/07/04 05:05:40;;;;;;;0.20;0.20;;;;;;;;;;5045522;28;20031;-78
2021/07/04 05:08:05;;;;;;;0.20;0.20;;;;;;;;;;5049181;28;20046;-77
2021/07/04 05:10:30;;;;;;;0.20;0.20;;;;;;;;;;5065545;28;20025;-79
2021/07/04 05:12:56;;;;;;;0.20;0.20;;;;;;;;;;5063132;28;20020;-79
2021/07/04 05:15:21;;;;;;;0.20;0.20;;;;;;;;;;5063168;28;20036;-78
2021/07/04 05:17:47;;;;;;;0.20;0.20;;;;;;;;;;5064189;28;20648;-78
2021/07/04 05:20:14;;;;;;;0.20;0.20;;;;;;;;;;5050739;28;20109;-78
2021/07/04 05:22:40;;;;;;;0.20;0.20;;;;;;;;;;5065553;28;20028;-78
2021/07/04 05:25:06;;;;;;;0.20;0.20;;;;;;;;;;5065908;28;20032;-77
2021/07/04 05:27:31;;;;;;;0.20;0.20;;;;;;;;;;5064321;28;20040;-78
2021/07/04 05:29:57;;;;;;;0.20;0.20;;;;;;;;;;5050268;28;20017;-77
2021/07/04 05:32:22;;;;;;;0.20;0.20;;;;;;;;;;5086258;28;20028;-78
2021/07/04 05:34:48;;;;;;;0.20;0.20;;;;;;;;;;5083210;28;20021;-79
2021/07/04 05:37:14;;;;;;;0.20;0.20;;;;;;;;;;5084700;28;20075;-79
2021/07/04 05:39:39;;;;;;;0.20;0.20;;;;;;;;;;5075659;28;20032;-78
2021/07/04 05:42:05;;;;;;;0.10;0.10;;;;;;;;;;5076659;28;20021;-77
2021/07/04 05:44:30;;;;;;;0.20;0.20;;;;;;;;;;5089757;28;20121;-79
2021/07/04 05:46:56;;;;;;;0.20;0.20;;;;;;;;;;5084323;28;20027;-80
2021/07/04 05:49:21;;;;;;;0.20;0.20;;;;;;;;;;5086642;28;20032;-80
2021/07/04 05:51:47;;;;;;;0.20;0.20;;;;;;;;;;5076283;28;21219;-78
2021/07/04 05:54:12;;;;;;;0.13;0.13;;;;;;;;;;5063837;28;20056;-78
2021/07/04 05:56:38;;;;;;;0.20;0.20;;;;;;;;;;5065354;28;20372;-77
2021/07/04 05:59:03;;;;;;;0.10;0.10;;;;;;;;;;5068343;28;20087;-78
2021/07/04 06:01:29;;;;;;;0.20;0.20;;;;;;;;;;5058492;28;20031;-78
2021/07/04 06:03:54;;;;;;;0.20;0.20;;;;;;;;;;5065945;28;20035;-78
2021/07/04 06:06:19;;;;;;;0.20;0.20;;;;;;;;;;5053913;28;20056;-78
2021/07/04 06:08:45;;;;;;;0.20;0.20;;;;;;;;;;5073738;28;20516;-77
2021/07/04 06:11:10;;;;;;;0.20;0.20;;;;;;;;;;5048273;28;20025;-78
2021/07/04 06:13:35;;;;;;;0.20;0.20;;;;;;;;;;5057513;28;20040;-78
2021/07/04 06:16:01;;;;;;;0.20;0.20;;;;;;;;;;5065001;28;20044;-78
2021/07/04 06:18:28;;;;;;;0.20;0.20;;;;;;;;;;5061214;28;20107;-78
2021/07/04 06:20:54;;;;;;;0.20;0.20;;;;;;;;;;5065411;28;20017;-77
2021/07/04 06:23:19;;;;;;;0.17;0.17;;;;;;;;;;5064578;28;20116;-77
2021/07/04 06:25:46;;;;;;;0.13;0.13;;;;;;;;;;5072465;28;20118;-77
2021/07/04 06:28:11;;;;;;;0.15;0.15;;;;;;;;;;5068801;28;20032;-77
2021/07/04 06:30:37;;;;;;;0.20;0.20;;;;;;;;;;5060730;28;20451;-77
2021/07/04 06:33:02;;;;;;;0.20;0.20;;;;;;;;;;5063019;28;20107;-76
2021/07/04 06:35:28;;;;;;;0.20;0.20;;;;;;;;;;5068040;28;20416;-77
2021/07/04 06:37:53;;;;;;;0.17;0.17;;;;;;;;;;5064758;28;20103;-77
2021/07/04 06:40:19;;;;;;;0.10;0.10;;;;;;;;;;5063968;28;20043;-78
2021/07/04 06:42:44;;;;;;;0.10;0.10;;;;;;;;;;5062429;28;20042;-76
2021/07/04 06:45:11;;;;;;;0.20;0.20;;;;;;;;;;5062655;28;20029;-78
2021/07/04 06:47:40;;;;;;;0.10;0.10;;;;;;;;;;5049802;28;20032;-78
2021/07/04 06:50:06;;;;;;;0.20;0.20;;;;;;;;;;5065303;28;20047;-76
2021/07/04 06:52:32;;;;;;;0.17;0.17;;;;;;;;;;5044872;28;20025;-77
2021/07/04 06:54:57;;;;;;;0.20;0.20;;;;;;;;;;5057395;28;20588;-78
2021/07/04 06:57:29;;;;;;;0.20;0.20;;;;;;;;;;5069298;28;20027;-77
2021/07/04 06:59:58;;;;;;;0.20;0.20;;;;;;;;;;5064509;28;20488;-78
2021/07/04 07:02:24;;;;;;;0.20;0.20;;;;;;;;;;5058064;28;20032;-79
2021/07/04 07:04:50;;;;;;;0.20;0.20;;;;;;;;;;5055281;28;20016;-77
2021/07/04 07:07:15;;;;;;;0.20;0.20;;;;;;;;;;5064207;28;20401;-78
2021/07/04 07:09:41;;;;;;;0.20;0.20;;;;;;;;;;5045408;28;20079;-77
2021/07/04 07:12:07;;;;;;;0.20;0.20;;;;;;;;;;5066633;28;20142;-76
2021/07/04 07:14:32;;;;;;;0.20;0.20;;;;;;;;;;5050280;28;20466;-77
2021/07/04 07:16:57;;;;;;;0.20;0.20;;;;;;;;;;5065025;28;20032;-77
2021/07/04 07:19:23;;;;;;;0.10;0.10;;;;;;;;;;5044731;28;20024;-77
2021/07/04 07:21:48;;;;;;;0.20;0.20;;;;;;;;;;5066030;28;20009;-78
2021/07/04 07:24:14;;;;;;;0.10;0.10;;;;;;;;;;5064840;28;20032;-79
2021/07/04 07:26:45;;;;;;;0.20;0.20;;;;;;;;;;5060019;28;20028;-77
2021/07/04 07:29:10;;;;;;;0.10;0.10;;;;;;;;;;5061368;28;20382;-78
2021/07/04 07:31:36;;;;;;;0.10;0.10;;;;;;;;;;5056466;28;20064;-78
2021/07/04 07:34:05;;;;;;;0.10;0.10;;;;;;;;;;5058258;28;20107;-77
2021/07/04 07:36:32;;;;;;;0.10;0.10;;;;;;;;;;5062671;28;20409;-77
2021/07/04 07:38:57;;;;;;;0.10;0.10;;;;;;;;;;5055730;28;20489;-77
2021/07/04 07:41:22;;;;;;;0.10;0.10;;;;;;;;;;5062214;28;20021;-77
2021/07/04 07:43:48;;;;;;;0.10;0.10;;;;;;;;;;5052083;28;20025;-77
2021/07/04 07:46:14;;;;;;;0.10;0.10;;;;;;;;;;5060590;28;20033;-78
2021/07/04 07:48:39;;;;;;;0.10;0.10;;;;;;;;;;5058155;28;20032;-77
2021/07/04 07:51:14;;;;;;;0.10;0.10;;;;;;;;;;5064829;28;20113;-77
2021/07/04 07:53:40;;;;;;;0.10;0.10;;;;;;;;;;5058949;28;20028;-78
2021/07/04 07:56:05;;;;;;;0.10;0.10;;;;;;;;;;5059908;28;20035;-77
2021/07/04 07:58:44;;;;;;;0.10;0.10;;;;;;;;;;5048841;28;20036;-77
2021/07/04 08:01:10;;;;;;;0.20;0.20;;;;;;;;;;5046358;28;20032;-77
2021/07/04 08:03:37;;;;;;;0.22;0.20;;;;;;;;;;5068114;28;20680;-77
2021/07/04 08:06:02;;;;;;;0.10;0.10;;;;;;;;;;5056160;28;20043;-78
2021/07/04 08:08:27;;;;;;;0.10;0.10;;;;;;;;;;5065555;28;20032;-77
2021/07/04 08:10:53;;;;;;;0.10;0.10;;;;;;;;;;5071508;28;20027;-78
2021/07/04 08:13:18;;;;;;;0.10;0.10;;;;;;;;;;5058920;28;20028;-77
2021/07/04 08:15:43;;;;;;;0.10;0.10;;;;;;;;;;5059095;28;20382;-77
2021/07/04 08:18:09;;;;;;;0.10;0.10;;;;;;;;;;5047990;28;20028;-77
2021/07/04 08:20:34;;;;;;;0.10;0.10;;;;;;;;;;5063567;28;20028;-76
2021/07/04 08:22:59;;;;;;;0.10;0.10;;;;;;;;;;5057204;28;20451;-78
2021/07/04 08:25:25;;;;;;;0.10;0.10;;;;;;;;;;5071440;28;20033;-76
2021/07/04 08:27:50;;;;;;;0.10;0.10;;;;;;;;;;5066244;28;20091;-76
2021/07/04 08:30:16;;;;;;;0.10;0.10;;;;;;;;;;5062446;28;20419;-77
2021/07/04 08:32:41;;;;;;;0.10;0.10;;;;;;;;;;5062477;28;20021;-77
2021/07/04 08:35:07;;;;;;;0.10;0.10;;;;;;;;;;5046099;28;20044;-76
2021/07/04 08:37:35;;;;;;;0.10;0.10;;;;;;;;;;5064285;28;20024;-77
2021/07/04 08:40:00;;;;;;;0.00;0.00;;;;;;;;;;5067698;28;20071;-76
2021/07/04 08:42:26;;;;;;;0.10;0.10;;;;;;;;;;5070283;28;20032;-77
2021/07/04 08:44:53;;;;;;;0.10;0.10;;;;;;;;;;5071687;28;20114;-76
2021/07/04 08:47:19;;;;;;;0.10;0.10;;;;;;;;;;5069829;28;20032;-78
2021/07/04 08:49:45;;;;;;;0.10;0.10;;;;;;;;;;5061361;28;20028;-77
2021/07/04 08:52:11;;;;;;;0.10;0.10;;;;;;;;;;5062711;28;20436;-76
2021/07/04 08:54:36;;;;;;;0.00;0.00;;;;;;;;;;5065677;28;20052;-77
2021/07/04 08:57:01;;;;;;;0.10;0.10;;;;;;;;;;5071680;28;20036;-77
2021/07/04 08:59:27;;;;;;;0.10;0.10;;;;;;;;;;5069150;28;20107;-77
2021/07/04 09:01:53;;;;;;;0.05;0.05;;;;;;;;;;5061367;28;20089;-77
2021/07/04 09:04:20;;;;;;;0.10;0.10;;;;;;;;;;5065025;28;20107;-76
2021/07/04 09:06:47;;;;;;;0.00;0.00;;;;;;;;;;5042830;28;20114;-76
2021/07/04 09:09:16;;;;;;;0.10;0.10;;;;;;;;;;5059195;28;20043;-77
2021/07/04 09:11:59;;;;;;;0.00;0.00;;;;;;;;;;5067471;28;20090;-77
2021/07/04 09:14:37;;;;;;;0.10;0.10;;;;;;;;;;5062433;28;20517;-77
2021/07/04 09:17:04;;;;;;;0.10;0.10;;;;;;;;;;5062321;28;20405;-77
2021/07/04 09:19:29;;;;;;;0.10;0.10;;;;;;;;;;5063286;28;20067;-77
2021/07/04 09:21:55;;;;;;;0.10;0.10;;;;;;;;;;5057872;28;20461;-77
2021/07/04 09:24:22;;;;;;;0.10;0.10;;;;;;;;;;5064142;28;20027;-77
2021/07/04 09:26:47;;;;;;;0.10;0.10;;;;;;;;;;5060048;28;20039;-77
2021/07/04 09:29:13;;;;;;;0.10;0.10;;;;;;;;;;5061903;28;20029;-77
2021/07/04 09:31:39;;;;;;;0.10;0.10;;;;;;;;;;5059592;28;20048;-76
2021/07/04 09:34:14;;;;;;;0.10;0.10;;;;;;;;;;5062521;28;20033;-76
2021/07/04 09:36:40;;;;;;;0.00;0.00;;;;;;;;;;5058843;28;20033;-77
2021/07/04 09:39:16;;;;;;;0.10;0.10;;;;;;;;;;5062308;28;20497;-76
2021/07/04 09:42:00;;;;;;;0.10;0.10;;;;;;;;;;5060926;28;20021;-77
2021/07/04 09:44:25;;;;;;;0.10;0.10;;;;;;;;;;5055856;28;20032;-77
2021/07/04 09:47:09;;;;;;;0.10;0.10;;;;;;;;;;5044186;28;20033;-77
2021/07/04 09:49:35;;;;;;;0.00;0.00;;;;;;;;;;5070853;28;20025;-76
2021/07/04 09:52:13;;;;;;;0.10;0.10;;;;;;;;;;5083917;28;20110;-75
2021/07/04 09:54:51;;;;;;;0.10;0.10;;;;;;;;;;5086124;28;20036;-76
2021/07/04 09:57:16;;;;;;;0.00;0.00;;;;;;;;;;5087862;28;20112;-75
2021/07/04 09:59:42;;;;;;;0.07;0.07;;;;;;;;;;5076863;28;20017;-76
2021/07/04 10:02:13;;;;;;;0.00;0.00;;;;;;;;;;5081627;28;20040;-76
2021/07/04 10:04:39;;;;;;;0.00;0.00;;;;;;;;;;5063021;28;20031;-76
2021/07/04 10:07:04;;;;;;;0.10;0.10;;;;;;;;;;5071932;28;20036;-76
2021/07/04 10:09:29;;;;;;;0.10;0.10;;;;;;;;;;5064713;28;20404;-76
2021/07/04 10:11:55;;;;;;;0.10;0.10;;;;;;;;;;5058568;28;20416;-76
2021/07/04 10:14:21;;;;;;;0.00;0.00;;;;;;;;;;5063576;28;20051;-76
2021/07/04 10:16:47;;;;;;;0.00;0.00;;;;;;;;;;5061614;28;20056;-76
2021/07/04 10:19:16;;;;;;;0.00;0.00;;;;;;;;;;5063099;28;20032;-76
2021/07/04 10:21:42;;;;;;;0.00;0.00;;;;;;;;;;5061538;28;20038;-76
2021/07/04 10:24:08;;;;;;;0.10;0.10;;;;;;;;;;5063952;28;20029;-75
2021/07/04 10:26:37;;;;;;;0.10;0.10;;;;;;;;;;5061327;28;20028;-76
2021/07/04 10:29:04;;;;;;;0.03;0.03;;;;;;;;;;5060026;28;20124;-76
2021/07/04 10:31:31;;;;;;;0.00;0.00;;;;;;;;;;5059372;28;20532;-76
2021/07/04 10:34:09;;;;;;;0.00;0.00;;;;;;;;;;5060293;28;20044;-77
2021/07/04 10:37:10;;;;;;;0.00;0.00;;;;;;;;;;5058470;28;20020;-76
2021/07/04 10:39:36;;;;;;;0.00;0.00;;;;;;;;;;5001597;28;20029;-76
2021/07/04 10:42:10;;;;;;;0.00;0.00;;;;;;;;;;5046775;28;20115;-76
2021/07/04 10:44:42;;;;;;;0.00;0.00;;;;;;;;;;5043218;28;20028;-76
2021/07/04 10:47:20;;;;;;;0.00;0.00;;;;;;;;;;5059150;28;20033;-75
2021/07/04 10:49:53;;;;;;;0.00;0.00;;;;;;;;;;5056949;28;20032;-76
2021/07/04 10:52:30;;;;;;;0.00;0.00;;;;;;;;;;5060577;28;20036;-76
2021/07/04 10:54:56;;;;;;;0.00;0.00;;;;;;;;;;5064126;28;20759;-76
2021/07/04 10:57:26;;;;;;;0.00;0.00;;;;;;;;;;5060787;28;20845;-76
2021/07/04 11:00:01;;;;;;;0.00;0.00;;;;;;;;;;5059383;28;20078;-76
2021/07/04 11:02:46;;;;;;;0.00;0.00;;;;;;;;;;5047458;28;20022;-77
2021/07/04 11:05:12;;;;;;;0.10;0.10;;;;;;;;;;5032062;28;20083;-76
2021/07/04 11:07:52;;;;;;;0.10;0.10;;;;;;;;;;5056617;28;20063;-76
2021/07/04 11:10:19;;;;;;;0.03;0.03;;;;;;;;;;5054702;28;20039;-76
2021/07/04 11:12:45;;;;;;;0.00;0.00;;;;;;;;;;5059025;28;20499;-76
2021/07/04 11:15:11;;;;;;;0.10;0.10;;;;;;;;;;5063147;28;20481;-76
2021/07/04 11:17:55;;;;;;;0.00;0.00;;;;;;;;;;5057484;28;20274;-76
2021/07/04 11:20:20;;;;;;;0.00;0.00;;;;;;;;;;5055926;28;20032;-76
2021/07/04 11:22:56;;;;;;;0.00;0.00;;;;;;;;;;5057079;28;20021;-77
2021/07/04 11:25:22;;;;;;;0.10;0.10;;;;;;;;;;5053793;28;20021;-76
2021/07/04 11:28:06;;;;;;;0.10;0.10;;;;;;;;;;5039766;28;20058;-76
2021/07/04 11:30:31;;;;;;;0.10;0.10;;;;;;;;;;5054344;28;20382;-76
2021/07/04 11:33:16;;;;;;;0.10;0.10;;;;;;;;;;5057930;28;20527;-77
2021/07/04 11:35:41;;;;;;;0.00;0.00;;;;;;;;;;5060945;28;20021;-76
2021/07/04 11:38:13;;;;;;;0.00;0.00;;;;;;;;;;5062988;28;20094;-76
2021/07/04 11:40:42;;;;;;;0.00;0.00;;;;;;;;;;5061144;28;20025;-74
2021/07/04 11:43:14;;;;;;;0.00;0.00;;;;;;;;;;5064081;28;20029;-75
2021/07/04 11:45:45;;;;;;;0.00;0.00;;;;;;;;;;5070939;28;20162;-77
2021/07/04 11:48:11;;;;;;;0.00;0.00;;;;;;;;;;5059716;28;20029;-75
2021/07/04 11:50:46;;;;;;;0.00;0.00;;;;;;;;;;5059036;28;20451;-75
2021/07/04 11:53:12;;;;;;;0.10;0.10;;;;;;;;;;5057751;28;20051;-77
2021/07/04 11:55:59;;;;;;;0.00;0.00;;;;;;;;;;5064626;28;20040;-77
2021/07/04 11:58:25;;;;;;;0.00;0.00;;;;;;;;;;5065274;28;20024;-77
2021/07/04 12:00:51;;;;;;;0.00;0.00;;;;;;;;;;5048943;28;20500;-77
2021/07/04 12:03:21;;;;;;;0.00;0.00;;;;;;;;;;5057640;28;20040;-76
2021/07/04 12:05:46;;;;;;;0.00;0.00;;;;;;;;;;5060858;28;20036;-77
2021/07/04 12:08:12;;;;;;;0.00;0.00;;;;;;;;;;5056343;28;20035;-77
2021/07/04 12:10:53;;;;;;;0.10;0.10;;;;;;;;;;5054035;28;20036;-76
2021/07/04 12:13:18;;;;;;;0.00;0.00;;;;;;;;;;5059543;28;20032;-76
2021/07/04 12:15:49;;;;;;;0.00;0.00;;;;;;;;;;5073168;28;20130;-76
2021/07/04 12:18:16;;;;;;;0.00;0.00;;;;;;;;;;5054869;28;20513;-77
2021/07/04 12:20:41;;;;;;;0.00;0.00;;;;;;;;;;5065923;28;20110;-77
2021/07/04 12:23:09;;;;;;;0.00;0.00;;;;;;;;;;5063489;28;20856;-76
2021/07/04 12:25:39;;;;;;;0.00;0.00;;;;;;;;;;5063600;28;20266;-76
2021/07/04 12:28:06;;;;;;;0.00;0.00;;;;;;;;;;5051474;28;20120;-77
2021/07/04 12:30:41;;;;;;;0.00;0.00;;;;;;;;;;5049721;28;20033;-77
2021/07/04 12:33:09;;;;;;;0.00;0.00;;;;;;;;;;5059782;28;20036;-76
2021/07/04 12:35:34;;;;;;;0.00;0.00;;;;;;;;;;5059187;28;20044;-76
2021/07/04 12:38:05;;;;;;;0.00;0.00;;;;;;;;;;5056782;28;20040;-77
2021/07/04 12:40:34;;;;;;;0.00;0.00;;;;;;;;;;5053211;28;20032;-76
2021/07/04 12:43:08;;;;;;;0.10;0.10;;;;;;;;;;5058178;28;20036;-77
2021/07/04 12:45:33;;;;;;;0.00;0.00;;;;;;;;;;5050788;28;20039;-76
2021/07/04 12:48:00;;;;;;;0.10;0.10;;;;;;;;;;5060093;28;20033;-77
2021/07/04 12:50:25;;;;;;;;;;;;;;;;;;5061462;28;20786;-77
2021/07/04 12:53:00;;;;;;;0.10;0.10;;;;;;;;;;5039943;28;19912;-77
2021/07/04 12:55:40;;;;;;;0.00;0.00;;;;;;;;;;5052617;28;20039;-77
2021/07/04 12:58:26;;;;;;;0.10;0.10;;;;;;;;;;5059734;28;20045;-76
2021/07/04 13:00:53;;;;;;;0.00;0.00;;;;;;;;;;5061704;28;20044;-77
2021/07/04 13:03:37;;;;;;;0.00;0.00;;;;;;;;;;5057238;28;20089;-77
2021/07/04 13:06:03;;;;;;;0.00;0.00;;;;;;;;;;5054201;28;20064;-77
2021/07/04 13:08:28;;;;;;;0.00;0.00;;;;;;;;;;5055959;28;20044;-76
2021/07/04 13:10:53;;;;;;;0.00;0.00;;;;;;;;;;5060703;28;20674;-77
2021/07/04 13:13:19;;;;;;;0.00;0.00;;;;;;;;;;5045554;28;20043;-76
2021/07/04 13:15:44;;;;;;;0.10;0.10;;;;;;;;;;5058630;28;20040;-76
2021/07/04 13:18:26;;;;;;;0.10;0.10;;;;;;;;;;5056713;28;20037;-75
2021/07/04 13:20:51;;;;;;;0.10;0.10;;;;;;;;;;5055193;28;20067;-76
2021/07/04 13:23:18;;;;;;;0.10;0.10;;;;;;;;;;5060030;28;20067;-76
2021/07/04 13:25:45;;;;;;;0.00;0.00;;;;;;;;;;5055369;28;20064;-77
2021/07/04 13:28:13;;;;;;;0.10;0.10;;;;;;;;;;5055616;28;20504;-76
2021/07/04 13:30:48;;;;;;;0.10;0.10;;;;;;;;;;5057064;28;20126;-75
2021/07/04 13:33:13;;;;;;;0.10;0.10;;;;;;;;;;5061002;28;20072;-76
2021/07/04 13:35:40;;;;;;;0.10;0.10;;;;;;;;;;5054640;28;20191;-76
2021/07/04 13:38:07;;;;;;;0.10;0.10;;;;;;;;;;5055574;28;20041;-76
2021/07/04 13:40:33;;;;;;;0.10;0.10;;;;;;;;;;5054386;28;20041;-76
2021/07/04 13:42:59;;;;;;;0.10;0.10;;;;;;;;;;5049787;28;20230;-76
2021/07/04 13:45:37;;;;;;;0.10;0.10;;;;;;;;;;5062122;28;20036;-75
2021/07/04 13:48:05;;;;;;;0.10;0.10;;;;;;;;;;5063810;28;20040;-75
2021/07/04 13:50:30;;;;;;;0.10;0.10;;;;;;;;;;5062374;28;20032;-75
2021/07/04 13:52:56;;;;;;;0.10;0.10;;;;;;;;;;5059732;28;20078;-75
2021/07/04 13:55:22;;;;;;;0.10;0.10;;;;;;;;;;5053698;28;20119;-74
2021/07/04 13:57:47;;;;;;;0.00;0.00;;;;;;;;;;5053844;28;20307;-75
2021/07/04 14:00:13;;;;;;;0.10;0.10;;;;;;;;;;5057868;28;20028;-76
2021/07/04 14:02:38;;;;;;;0.10;0.10;;;;;;;;;;5053817;28;20043;-76
2021/07/04 14:05:04;;;;;;;0.00;0.00;;;;;;;;;;5038649;28;20273;-76
2021/07/04 14:07:30;;;;;;;0.00;0.00;;;;;;;;;;5060498;28;20036;-76
2021/07/04 14:09:55;;;;;;;0.00;0.00;;;;;;;;;;5055649;28;20048;-76
2021/07/04 14:12:20;;;;;;;0.00;0.00;;;;;;;;;;5061101;28;20048;-76
2021/07/04 14:14:46;;;;;;;0.00;0.00;;;;;;;;;;5057298;28;20041;-75
2021/07/04 14:17:13;;;;;;;0.00;0.00;;;;;;;;;;5038226;28;20064;-75
2021/07/04 14:19:40;;;;;;;0.00;0.00;;;;;;;;;;5057784;28;20043;-76
2021/07/04 14:22:05;;;;;;;0.00;0.00;;;;;;;;;;5053522;28;20068;-75
2021/07/04 14:24:31;;;;;;;0.00;0.00;;;;;;;;;;5057704;28;20087;-76
2021/07/04 14:26:56;;;;;;;0.00;0.00;;;;;;;;;;5060264;28;20083;-76
2021/07/04 14:29:22;;;;;;;0.00;0.00;;;;;;;;;;5054156;28;20048;-76
2021/07/04 14:31:48;;;;;;;0.00;0.00;;;;;;;;;;5060234;28;21243;-76
2021/07/04 14:34:13;;;;;;;0.00;0.00;;;;;;;;;;5038845;28;20036;-76
2021/07/04 14:36:38;;;;;;;0.00;0.00;;;;;;;;;;5052462;28;20102;-76
2021/07/04 14:39:05;;;;;;;0.00;0.00;;;;;;;;;;5051007;28;20101;-75
2021/07/04 14:41:30;;;;;;;0.00;0.00;;;;;;;;;;5042885;28;20041;-76
2021/07/04 14:43:56;;;;;;;0.00;0.00;;;;;;;;;;5050325;28;20037;-74
2021/07/04 14:46:22;;;;;;;0.10;0.10;;;;;;;;;;5062260;28;20512;-75